• Join FlightAware (Why Join?)
  • Login
  • US Flag 
01:36AM EDT


 

Airport Tracker/Info


-or-


 

Live Flight TrackerFlight Track Log ✈ OPT332 ✈ 16-Nov-2013 ✈ KAUS - KSAF

Flight Track Log - Related Links

Times and Time Zones

All times are in EST time to prevent confusion due to time zone crossing. See the OPT332 flight status page for this flight to view local times or setup timezone preferences in your user account.

Time Position Orientation Groundspeed Altitude Reporting Facility
EST Latitude Longitude Course Direction KTS MPH feet Rate Location/Type
11:02AM 30.1790 -97.6572 178° South 162 186 1,800  Level FlightAware ADS-B
11:03AM 30.1700 -97.6567 177° South 165 190 2,600 3,360 Climbing FlightAware ADS-B
11:03AM 30.1471 -97.6766 217° Southwest 169 194 4,700 3,060 Climbing FlightAware ADS-B
11:03AM 30.1474 -97.6803 275° West 227 261 4,800 1,680 Climbing FlightAware ADS-B
11:03AM 30.1483 -97.6843 285° West 237 273 4,900 2,520 Climbing FlightAware ADS-B
11:03AM 30.1496 -97.6881 292° West 241 277 5,100 2,520 Climbing FlightAware ADS-B
11:04AM 30.1519 -97.6929 299° West 251 289 5,200 3,000 Climbing FlightAware ADS-B
11:04AM 30.1561 -97.6993 307° West 256 295 5,600 4,260 Climbing FlightAware ADS-B
11:04AM 30.1674 -97.7150 310° West 246 283 6,700 3,900 Climbing FlightAware ADS-B
11:04AM 30.1777 -97.7296 309° West 251 289 7,500 3,300 Climbing FlightAware ADS-B
11:04AM 30.1888 -97.7458 308° West 254 292 8,300 3,300 Climbing FlightAware ADS-B
11:05AM 30.1975 -97.7587 308° West 254 292 9,000 3,600 Climbing FlightAware ADS-B
11:05AM 30.2052 -97.7709 306° West 252 290 9,700 3,420 Climbing FlightAware ADS-B
11:05AM 30.2144 -97.7871 303° West 254 292 10,500 3,360 Climbing FlightAware ADS-B
11:05AM 30.2207 -97.7987 302° West 257 296 11,100 2,580 Climbing FlightAware ADS-B
11:06AM 30.2346 -97.8231 303° West 276 318 11,800 1,020 Climbing FlightAware ADS-B
11:06AM 30.2580 -97.8629 304° West 310 357 12,000 840 Climbing FlightAware ADS-B
11:07AM 30.2839 -97.9065 305° West 314 361 12,700 2,220 Climbing FlightAware ADS-B
11:07AM 30.3041 -97.9409 304° West 304 350 14,100 3,300 Climbing FlightAware ADS-B
11:07AM 30.3117 -97.9514 310° West 306 352 14,600 3,420 Climbing FlightAware ADS-B
11:07AM 30.3172 -97.9567 320° Northwest 309 356 14,900 3,420 Climbing FlightAware ADS-B
11:08AM 30.3517 -97.9849 325° Northwest 294 338 16,600 3,060 Climbing FlightAware ADS-B
11:08AM 30.3845 -98.0133 323° Northwest 290 334 18,000 2,640 Climbing FlightAware ADS-B
11:09AM 30.4172 -98.0415 323° Northwest 292 336 19,300 2,340 Climbing FlightAware ADS-B
11:09AM 30.4337 -98.0556 324° Northwest 291 335 19,800 1,980 Climbing FlightAware ADS-B
11:09AM 30.4507 -98.0703 323° Northwest 297 342 20,300 2,100 Climbing FlightAware ADS-B
11:10AM 30.4846 -98.0995 323° Northwest 300 345 21,400 2,040 Climbing FlightAware ADS-B
11:10AM 30.5189 -98.1289 324° Northwest 303 349 22,400 1,920 Climbing FlightAware ADS-B
11:11AM 30.5529 -98.1582 323° Northwest 305 351 23,400 1,860 Climbing FlightAware ADS-B
11:11AM 30.5880 -98.1885 323° Northwest 311 358 24,300 1,620 Climbing FlightAware ADS-B
11:12AM 30.6118 -98.2091 323° Northwest 318 366 24,800 1,500 Climbing FlightAware ADS-B
11:12AM 30.6254 -98.2208 323° Northwest 322 371 25,100 1,440 Climbing FlightAware ADS-B
11:12AM 30.6761 -98.2646 323° Northwest 331 381 26,100 1,500 Climbing FlightAware ADS-B
11:14AM 30.8288 -98.3967 323° Northwest 337 388 29,100 1,500 Climbing FlightAware ADS-B
11:16AM 30.9205 -98.4764 323° Northwest 372 428 30,800 1,500 Climbing FlightAware ADS-B
11:16AM 30.9931 -98.5395 323° Northwest 365 420 32,200 1,440 Climbing FlightAware ADS-B
11:19AM 31.1647 -98.6895 323° Northwest 369 425 35,100 1,440 Climbing FlightAware ADS-B
11:20AM 31.2476 -98.7619 323° Northwest 361 415 36,900 1,740 Climbing FlightAware ADS-B
11:20AM 31.3107 -98.8173 323° Northwest 343 395 38,400 1,800 Climbing FlightAware ADS-B
11:21AM 31.3571 -98.8581 323° Northwest 331 381 39,500 1,260 Climbing FlightAware ADS-B
11:24AM 31.5420 -99.0225 323° Northwest 312 359 42,600 960 Climbing FlightAware ADS-B
11:25AM 31.5831 -99.0850 323° Northwest 288 331 43,000  Climbing Houston Center
11:31AM 31.9124 -99.6090 323° Northwest 337 388 43,000  Level FlightAware ADS-B (ESKB)
11:31AM 31.9406 -99.6543 306° West 339 390 43,000  Level FlightAware ADS-B (ESKB)
11:32AM 31.9712 -99.7033 306° West 338 389 43,000  Level FlightAware ADS-B (ESKB)
11:34AM 32.0711 -99.8644 306° West 341 392 43,000  Level FlightAware ADS-B (ESKB)
11:35AM 32.1386 -99.9753 306° West 346 398 43,000  Level Fort Worth Center
11:36AM 32.1956 -100.0672 306° West 347 399 43,000  Level Fort Worth Center
11:37AM 32.2525 -100.1594 306° West 346 398 43,000  Level Fort Worth Center
11:38AM 32.3097 -100.2514 306° West 345 397 43,000  Level Fort Worth Center
11:39AM 32.3656 -100.3442 305° West 345 397 43,000  Level Fort Worth Center
11:40AM 32.4333 -100.4531 306° West 341 392 43,000  Level Fort Worth Center
11:41AM 32.4881 -100.5444 305° West 339 390 43,000  Level Fort Worth Center
11:42AM 32.5436 -100.6358 306° West 340 391 43,000  Level Fort Worth Center
11:43AM 32.6008 -100.7283 306° West 345 397 43,000  Level Fort Worth Center
11:44AM 32.6553 -100.8192 305° West 341 392 43,000  Level Fort Worth Center
11:45AM 32.7103 -100.9100 306° West 338 389 43,000  Level Fort Worth Center
11:46AM 32.7656 -101.0017 306° West 339 390 43,000  Level Fort Worth Center
11:47AM 32.8314 -101.1106 306° West 338 389 43,000  Level Fort Worth Center
11:48AM 32.8853 -101.2025 305° West 338 389 43,000  Level Fort Worth Center
11:49AM 32.9408 -101.2939 306° West 339 390 43,000  Level Fort Worth Center
11:50AM 32.9917 -101.3797 305° West 337 388 43,000  Level Fort Worth Center
11:51AM 33.0447 -101.4697 305° West 335 386 43,000  Level Fort Worth Center
11:52AM 33.1092 -101.5789 305° West 336 387 43,000  Level Fort Worth Center
11:53AM 33.1622 -101.6689 305° West 334 384 43,000  Level Fort Worth Center
11:55AM 33.2156 -101.7594 305° West 336 387 43,000  Level Fort Worth Center
11:56AM 33.2681 -101.8497 305° West 334 384 43,000  Level Fort Worth Center
11:57AM 33.3217 -101.9400 305° West 335 386 43,000  Level Fort Worth Center
11:58AM 33.3861 -102.0497 305° West 338 389 43,000  Level Fort Worth Center
11:59AM 33.4389 -102.1417 305° West 337 388 43,000  Level Fort Worth Center
12:00PM 33.4931 -102.2336 305° West 340 391 43,000  Level Fort Worth Center
12:01PM 33.5464 -102.3261 305° West 340 391 43,000  Level Fort Worth Center
12:02PM 33.6017 -102.4175 306° West 340 391 43,000  Level Fort Worth Center
12:03PM 33.6650 -102.5297 304° West 341 392 43,000  Level Fort Worth Center
12:04PM 33.7181 -102.6222 305° West 339 390 43,000  Level Fort Worth Center
12:05PM 33.7708 -102.7142 305° West 338 389 43,000  Level Fort Worth Center
12:06PM 33.8239 -102.8061 305° West 337 388 43,000  Level Fort Worth Center
12:07PM 33.8767 -102.8978 305° West 335 386 43,000  Level Fort Worth Center
12:08PM 33.9400 -103.0103 304° West 339 390 43,000  Level Fort Worth Center
12:09PM 33.9933 -103.1025 305° West 338 389 43,000 -60 Level Fort Worth Center
12:10PM 34.0456 -103.1967 304° West 339 390 42,900 -540 Descending Fort Worth Center
12:11PM 34.0989 -103.2906 304° West 340 391 41,900 -1,140 Descending Fort Worth Center
12:12PM 34.1531 -103.3872 304° West 345 397 40,600 -1,320 Descending Fort Worth Center
12:13PM 34.2094 -103.4858 305° West 354 407 39,200 -1,440 Descending Fort Worth Center
12:14PM 34.2675 -103.5883 304° West 351 404 37,700 -1,560 Descending Fort Worth Center
12:15PM 34.3289 -103.7000 304° West 338 389 36,000 -1,560 Descending Fort Worth Center
12:16PM 34.3808 -103.7956 303° West 338 389 34,500 -1,500 Descending Fort Worth Center
12:17PM 34.4372 -103.8933 305° West 349 402 33,000 -1,500 Descending Fort Worth Center
12:18PM 34.4908 -103.9917 304° West 350 403 31,500 -1,440 Descending Fort Worth Center
12:19PM 34.5489 -104.0953 304° West 365 420 30,000 -1,440 Descending Fort Worth Center
12:20PM 34.6072 -104.2022 304° West 376 433 28,500 -1,020 Descending Fort Worth Center
12:21PM 34.6692 -104.3158 304° West 379 436 28,000 -240 Descending Fort Worth Center
12:23PM 34.7464 -104.4578 304° West 379 436 28,000  Level Albuquerque Center
12:24PM 34.8058 -104.5661 304° West 379 436 28,000  Level Albuquerque Center
12:25PM 34.8736 -104.6911 303° West 376 433 28,000  Level Albuquerque Center
12:26PM 34.9478 -104.7897 313° West 385 443 28,000  Level Albuquerque Center
12:27PM 35.0267 -104.8881 314° West 397 457 28,000  Level Albuquerque Center
12:28PM 35.1050 -104.9869 314° West 399 459 28,000  Level Albuquerque Center
12:29PM 35.1831 -105.0856 314° West 399 459 28,000 -1,020 Level Albuquerque Center
12:30PM 35.2586 -105.1814 314° West 390 449 26,000 -1,980 Descending Albuquerque Center
12:31PM 35.3333 -105.2753 314° West 383 441 24,000 -1,920 Descending Albuquerque Center
12:32PM 35.4050 -105.3672 314° West 373 429 22,100 -1,800 Descending Albuquerque Center
12:33PM 35.4736 -105.4544 314° West 357 411 20,300 -1,860 Descending Albuquerque Center
12:34PM 35.5378 -105.5364 314° West 338 389 18,400 -2,040 Descending Albuquerque Center
12:35PM 35.6019 -105.6189 314° West 305 351 16,200 -1,740 Descending Albuquerque Center
12:36PM 35.6539 -105.6869 313° West 296 341 14,900 -600 Descending Albuquerque Center
12:37PM 35.7042 -105.7503 314° West 273 314 15,000  Climbing Albuquerque Center
12:38PM 35.7511 -105.8117 313° West 253 291 15,000  Level Albuquerque Center
12:39PM 35.8092 -105.8858 314° West 252 290 15,000  Level Albuquerque Center
12:40PM 35.8578 -105.9497 313° West 256 295 15,000  Level Albuquerque Center
12:41PM 35.9019 -106.0064 314° West 240 276 15,000 -420 Level Albuquerque Center
12:42PM 35.9544 -106.0544 323° Northwest 231 266 14,200 -1,080 Descending Albuquerque Center
12:43PM 36.0156 -106.0900 335° Northwest 257 296 12,800 -1,440 Descending Albuquerque Center
12:44PM 36.0397 -106.0219 66° East 252 290 11,300 -960 Descending Albuquerque Center
12:45PM 35.9822 -106.0042 166° South 224 258 10,900 -240 Descending Albuquerque Center
12:46PM 35.9108 -106.0103 184° South 216 249 10,900 -480 Level Albuquerque Center
12:47PM 35.8497 -106.0172 185° South 224 258 10,000 -1,140 Descending Albuquerque Center
12:48PM 35.7856 -106.0247 185° South 230 265 8,600 -780 Descending Albuquerque Center
12:50PM 35.7325 -106.0311 186° South 204 235 8,500 -540 Descending Albuquerque Center
12:51PM 35.6967 -106.0458 198° South 144 166 7,500 -660 Descending Albuquerque Center
12:52PM 35.6617 -106.0611 200° South 135 155 7,200 -540 Descending Albuquerque Center
12:53PM 35.6289 -106.0769 201° Southwest 125 144 6,400 -780 Descending Albuquerque Center